createdAt,value
2022-08-03T17:35:56.549Z,97481.31
2022-08-03T17:38:25.280Z,97486.19
2022-08-03T17:41:00.210Z,97487.50
2022-08-03T17:44:13.053Z,97489.00
2022-08-03T17:46:20.387Z,97492.22
2022-08-03T17:48:46.935Z,97489.88
2022-08-03T17:51:28.092Z,97489.41
2022-08-03T17:54:18.506Z,97489.63
2022-08-03T17:56:46.591Z,97489.31
2022-08-03T17:59:51.076Z,97489.84
2022-08-03T18:02:59.536Z,97485.75
2022-08-03T18:06:11.682Z,97496.41
2022-08-03T18:08:37.053Z,97493.13
2022-08-03T18:11:19.822Z,97489.75
2022-08-03T18:14:16.319Z,97494.78
2022-08-03T18:16:50.843Z,97497.34
2022-08-03T18:19:19.830Z,97498.81
2022-08-03T18:22:06.369Z,97502.72
2022-08-03T18:24:34.342Z,97498.63
2022-08-03T18:27:04.135Z,97500.53
2022-08-03T18:29:39.304Z,97498.50
2022-08-03T18:32:13.304Z,97502.34
2022-08-03T18:34:53.792Z,97501.38
2022-08-03T18:37:25.983Z,97496.97
2022-08-03T18:39:57.945Z,97496.34
2022-08-03T18:42:26.364Z,97500.56
2022-08-03T18:44:56.349Z,97504.38
2022-08-03T18:47:51.792Z,97506.41
2022-08-03T18:50:28.403Z,97495.22
2022-08-03T18:53:23.521Z,97499.00
2022-08-03T18:56:23.424Z,97502.97
2022-08-03T18:59:04.351Z,97499.25
2022-08-03T19:01:58.974Z,97505.72
2022-08-03T19:04:41.254Z,97495.16
2022-08-03T19:07:16.921Z,97512.19
2022-08-03T19:09:48.060Z,97511.19
2022-08-03T19:12:31.120Z,97513.78
2022-08-03T19:15:05.326Z,97511.22
2022-08-03T19:17:36.043Z,97509.97
2022-08-03T19:20:06.256Z,97515.25
2022-08-03T19:22:33.922Z,97517.78
2022-08-03T19:25:04.601Z,97509.66
2022-08-03T19:27:36.371Z,97517.00
2022-08-03T19:32:56.665Z,97520.97
2022-08-03T19:35:51.654Z,97518.41
2022-08-03T19:38:16.502Z,97519.16
2022-08-03T19:41:02.106Z,97528.22
2022-08-03T19:43:33.071Z,97522.66
2022-08-03T19:46:07.637Z,97522.16
2022-08-03T19:48:40.386Z,97528.91
2022-08-03T19:51:12.517Z,97526.88
2022-08-03T19:53:44.999Z,97528.78
2022-08-03T19:56:14.335Z,97532.53
2022-08-03T19:58:46.660Z,97526.53
2022-08-03T20:01:21.578Z,97530.84
2022-08-03T20:03:49.707Z,97532.09
2022-08-03T20:06:23.699Z,97533.81
2022-08-03T20:08:51.465Z,97531.78
2022-08-03T20:11:28.834Z,97535.25
2022-08-03T20:13:57.965Z,97535.41
2022-08-03T20:16:24.846Z,97543.16
2022-08-03T20:18:52.024Z,97535.50
2022-08-03T20:21:23.363Z,97536.38
2022-08-03T20:24:01.769Z,97538.31
2022-08-03T20:26:30.614Z,97543.75
2022-08-03T20:29:09.088Z,97541.63
2022-08-03T20:31:39.237Z,97543.28
2022-08-03T20:34:09.145Z,97542.19
2022-08-03T20:36:35.750Z,97537.81
2022-08-03T20:39:07.893Z,97541.28
2022-08-03T20:41:36.986Z,97545.97
2022-08-03T20:44:04.558Z,97538.34
2022-08-03T20:46:41.673Z,97544.56
2022-08-03T20:49:23.068Z,97542.19
2022-08-03T20:52:00.001Z,97539.13
2022-08-03T20:54:29.402Z,97536.78
2022-08-03T20:56:58.427Z,97541.66
2022-08-03T20:59:47.162Z,97547.13
2022-08-03T21:02:19.594Z,97546.00
2022-08-03T21:04:57.676Z,97545.56
2022-08-03T21:08:03.680Z,97546.88
2022-08-03T21:10:16.828Z,97553.28
2022-08-03T21:13:02.300Z,97520.22
2022-08-03T21:13:18.597Z,97558.41
2022-08-03T21:16:06.700Z,97546.88
2022-08-03T21:18:44.601Z,97541.66
2022-08-03T21:21:16.669Z,97546.50
2022-08-03T21:23:48.806Z,97543.81
2022-08-03T21:26:21.204Z,97532.38
2022-08-03T21:28:49.518Z,97536.81
2022-08-03T21:31:22.298Z,97544.50
2022-08-03T21:34:04.133Z,97541.44
2022-08-03T21:36:36.773Z,97538.56
2022-08-03T21:39:08.395Z,97542.47
2022-08-03T21:41:36.616Z,97538.53
2022-08-03T21:44:07.244Z,97542.91
2022-08-03T21:46:40.077Z,97541.56
2022-08-03T21:50:05.027Z,97537.16
2022-08-03T21:52:05.039Z,97550.72
2022-08-03T21:54:35.759Z,97541.56
2022-08-03T21:57:05.087Z,97546.78
2022-08-03T21:59:38.837Z,97547.72
2022-08-03T22:02:15.607Z,97543.28
2022-08-03T22:04:58.162Z,97550.06
2022-08-03T22:07:26.385Z,97554.53
2022-08-03T22:09:55.183Z,97553.66
2022-08-03T22:12:25.552Z,97559.78
2022-08-03T22:15:00.038Z,97554.47
2022-08-03T22:17:53.824Z,97555.84
2022-08-03T22:20:17.300Z,97554.19
2022-08-03T22:22:53.618Z,97557.25
2022-08-03T22:25:27.266Z,97557.44
2022-08-03T22:27:54.736Z,97562.19
2022-08-03T22:30:23.011Z,97560.34
2022-08-03T22:32:52.834Z,97559.28
2022-08-03T22:35:21.357Z,97569.88
2022-08-03T22:37:54.064Z,97560.41
2022-08-03T22:40:21.229Z,97568.22
2022-08-03T22:42:52.494Z,97569.91
2022-08-03T22:46:05.959Z,97567.28
2022-08-03T22:48:09.764Z,97559.63
2022-08-03T22:50:37.029Z,97563.47
2022-08-03T22:53:03.635Z,97567.44
2022-08-03T22:55:32.409Z,97567.59
2022-08-03T22:57:59.029Z,97571.13
